Aviosuperficie Chiasiellis

IT-0405 · Friuli Venezia Giulia, 意大利

METAR的历史 IT-0405 · Aviosuperficie Chiasiellis

下面你可以看到过去几天的METARs。 选择年份以浏览从2007年开始的旧METAR。

2024年5月18日

时间 代码 天气 温度 能见度 天花板 METAR/SPECI
20:55
V
18 °C 10 km+ - 270° 270° 1 kt METAR LIPI 181855Z 27001KT CAVOK 18/13 Q1012 RMK SKC VIS MIN 9999 WIND THR06 23001KT WIND THR24 36001KT BLU
20:55
V
18 °C 10 km+ - 270° 270° 1 kt METAR LIPI 181855Z 27001KT CAVOK 18/13 Q1012
19:55
V
21 °C 10 km+ - 190° 190° 2 kt METAR LIPI 181755Z 19002KT CAVOK 21/12 Q1012
18:55
V
22 °C 10 km+ - 170° 170° 5 kt METAR LIPI 181655Z 17005KT CAVOK 22/12 Q1012
17:55
V
23 °C 10 km+ - 180° 180° 6 kt METAR LIPI 181555Z 18006KT 9999 FEW050 23/13 Q1012
16:55
V
23 °C 10 km+ - 170° 170° 6 kt METAR LIPI 181455Z 17006KT 9999 FEW060 23/12 Q1013 RMK FEW VIS MIN 9999 WIND THR06 20005KT WIND THR24 20007KT BLU
15:55
V
23 °C 10 km+ - 190° 190° 8 kt METAR LIPI 181355Z 19008KT 9999 FEW060 23/13 Q1013
14:55
V
23 °C 10 km+ - 170° 170° 5 kt METAR LIPI 181255Z 17005KT 9999 SCT050 23/14 Q1013
13:55
V
23 °C 10 km+ - 170° 170° 5 kt METAR LIPI 181155Z 17005KT 9999 FEW046 23/13 Q1013 RMK FEW VIS MIN 9999 WIND THR06 12004KT WIND THR24 17004KT BLU
12:55
V
22 °C 10 km+ - 140° 140° 4 kt METAR LIPI 181055Z 14004KT 9999 FEW083 22/16 Q1013 RMK FEW VIS MIN 9999 WIND THR06 17004KT WIND THR24 15004KT BLU
11:55
V
21 °C 10 km+ - 130° 130° 3 kt METAR LIPI 180955Z 13003KT CAVOK 21/15 Q1014
10:55
V
21 °C 10 km+ - 130° 130° 2 kt METAR LIPI 180855Z 13002KT CAVOK 21/14 Q1014 RMK SKC VIS MIN 9999 WIND THR06 10003KT WIND THR24 16002KT BLU
09:55
V
18 °C 10 km+ - 040° 040° 4 kt METAR LIPI 180755Z 04004KT CAVOK 18/12 Q1014
08:55
V
18 °C 10 km+ - 030° 030° 4 kt METAR LIPI 180655Z 03004KT CAVOK 18/13 Q1014 RMK SKC VIS MIN 9999 WIND THR06 05005KT WIND THR24 BLU
07:55
V
17 °C 10 km+ - 010° 010° 5 kt METAR LIPI 180555Z 01005KT CAVOK 17/13 Q1014
06:55
V
14 °C 10 km+ - 360° 360° 4 kt METAR LIPI 180455Z 36004KT 9999 FEW080 14/11 Q1013
05:55
V
13 °C 10 km+ - 350° 350° 5 kt METAR LIPI 180355Z 35005KT 9999 SCT080 13/11 Q1013 RMK SCT VIS MIN 9999 WIND THR06 02005KT WIND THR24 02004KT BLU
04:55
V
13 °C 10 km+ - 350° 350° 5 kt METAR LIPI 180255Z 35005KT 9999 SCT080 13/11 Q1013 RMK SCT VIS MIN 9999 WIND THR06 01004KT WIND THR24 02004KT BLU
03:55
V
14 °C 10 km+ - 350° 350° 5 kt METAR LIPI 180155Z 35005KT 9999 FEW040 SCT080 14/12 Q1013
02:55
V
14 °C 10 km+ - 010° 010° 4 kt METAR LIPI 180055Z 01004KT 9999 FEW025 SCT080 14/11 Q1013 RMK SCT VIS MIN 9999 WIND THR06 03005KT WIND THR24 05004KT BLU
01:55
V
14 °C 10 km+ - 010° 010° 4 kt METAR LIPI 172355Z 01004KT 9999 FEW025 SCT060 14/11 Q1013
00:55
V
14 °C 10 km+ - 010° 010° 4 kt METAR LIPI 172255Z 01004KT 9999 FEW040 SCT060 14/12 Q1013

2024年5月17日

时间 代码 天气 温度 能见度 天花板 METAR/SPECI
23:55
V
14 °C 10 km+ - 030° 030° 4 kt METAR LIPI 172155Z 03004KT 9999 FEW030 SCT060 14/12 Q1013 RMK SCT VIS MIN 9999 WIND THR06 05004KT WIND THR24 07006KT BLU
22:55
V
14 °C 10 km+ - 010° 010° 4 kt METAR LIPI 172055Z 01004KT 9999 FEW040 SCT060 14/12 Q1013 RMK SCT VIS MIN 9999 WIND THR06 01005KT WIND THR24 06006KT BLU
21:55
V
14 °C 10 km+ - 350° 350° 4 kt METAR LIPI 171955Z 35004KT 9999 FEW040CB SCT080 14/13 Q1012 RETS
20:55
V
16 °C 10 km+ - 030° 030° 6 kt METAR LIPI 171855Z 03006KT 9999 TS FEW040 FEW050CB 16/14 Q1011 RMK SCT VIS MIN 9999 WIND THR06 06005KT WIND THR24 07008KT BLU
19:55
V
17 °C 10 km+ - 080° 080° 6 kt METAR LIPI 171755Z 08006KT 9999 TS FEW030CB SCT070 17/14 Q1011
18:55
V
18 °C 10 km+ - 050° 050° 7 kt METAR LIPI 171655Z 05007KT 9999 FEW040 18/14 Q1011
17:55
V
18 °C 10 km+ - 030° 030° 8 kt METAR LIPI 171555Z 03008KT 9999 FEW025 SCT040 18/15 Q1011
16:55
V
18 °C 10 km+ - 360° 360° 5 kt METAR LIPI 171455Z 36005KT 9999 SCT025TCU SCT030 18/15 Q1011
15:55
V
19 °C 10 km+ - 180° 180° 3 kt METAR LIPI 171355Z 18003KT 9999 -RA SCT020 SCT025 19/15 Q1011
14:55
V
17 °C 10 km+ - 210° 210° 7 kt METAR LIPI 171255Z 21007KT 9999 -RA SCT025 SCT030 17/13 Q1011
13:55
V
19 °C 10 km+ - 200° 200° 10 kt METAR LIPI 171155Z 20010KT 9999 FEW025TCU SCT030 19/13 Q1011
12:55
V
19 °C 10 km+ - 210° 210° 9 kt METAR LIPI 171055Z 21009KT 9999 FEW025TCU SCT030 19/14 Q1010 RMK BKN VIS MIN 9999 WIND THR06 24008KT WIND THR24 24009KT BLU
11:55
V
19 °C 10 km+ - 200° 200° 7 kt METAR LIPI 170955Z 20007KT 9999 SCT015 SCT020 19/14 Q1010
10:55
V
18 °C 10 km+ - 180° 180° 8 kt METAR LIPI 170855Z 18008KT 9999 FEW013 SCT020 18/14 Q1009
09:55
M
16 °C 10 km+ 2.000 ft 180° 180° 3 kt METAR LIPI 170755Z 18003KT 9999 SCT007 BKN020 16/14 Q1009
08:55
M
15 °C 8 km 2.000 ft 100° 100° 2 kt METAR LIPI 170655Z 10002KT 8000 SCT010 BKN020 15/12 Q1008
07:55
M
14 °C 7 km 2.500 ft 070° 070° 2 kt METAR LIPI 170555Z 07002KT 7000 FEW003 SCT015 BKN025 14/11 Q1008
06:55
I
14 °C 4 km - 150° 150° 1 kt METAR LIPI 170455Z 15001KT 4000 BR SCT040 14/11 Q1008
05:55
V
13 °C 10 km+ 6.000 ft 070° 070° 2 kt METAR LIPI 170355Z 07002KT 9999 SCT040 BKN060 13/10 Q1007
04:55
V
13 °C 10 km+ - 040° 040° 1 kt METAR LIPI 170255Z 04001KT 9999 SCT050 13/10 Q1007 RMK SCT VIS MIN 9999 WIND THR06 06002KT WIND THR24 07002KT BLU
03:55
V
13 °C 10 km+ - 010° 010° 1 kt METAR LIPI 170155Z 01001KT 9999 SCT055 13/10 Q1007
02:55
V
13 °C 10 km+ 5.500 ft 320° 320° 1 kt METAR LIPI 170055Z 32001KT 9999 SCT017 BKN055 13/10 Q1007
01:55
V
13 °C 10 km+ - 260° 260° 4 kt METAR LIPI 162355Z 26004KT 9999 SCT100 13/11 Q1006
00:55
V
14 °C 10 km+ 10.000 ft 100° 100° 5 kt METAR LIPI 162255Z 10005KT 9999 -RA SCT015 BKN100 14/11 Q1006

2024年5月16日

时间 代码 天气 温度 能见度 天花板 METAR/SPECI
23:55
V
14 °C 10 km+ 11.000 ft 060° 060° 4 kt METAR LIPI 162155Z 06004KT 9999 -RA SCT040 BKN110 14/12 Q1004 RMK OVC VIS MIN 9999 WIND THR06 09004KT WIND THR24 09002KT BLU
22:55
I
15 °C 4 km 2.000 ft 170° 170° 13 kt METAR LIPI 162055Z 17013KT 4000 TSRA BR SCT010CB BKN020 15/13 Q1005 RMK OVC VIS MIN 4000 WIND THR06 19012KT WIND THR24 /////KT GRN
21:55
M
15 °C 6 km 3.500 ft 340° 340° 7 kt METAR LIPI 161955Z 34007KT 6000 TSRA SCT017CB BKN035 15/12 Q1004 RMK OVC VIS MIN 6000 WIND THR06 35008KT WIND THR24 02005KT WHT
20:55
M
15 °C 6 km 4.000 ft 330° 330° 6 kt METAR LIPI 161855Z 33006KT 6000 -TSRA SCT025CB BKN040 15/13 Q1004
17:55
M
15 °C 6 km 3.000 ft 290° 290° 9 kt METAR LIPI 161555Z 29009KT 6000 -TSRA SCT020CB BKN030 15/13 Q1006
16:55
M
17 °C 6 km 3.000 ft 030° 030° 12 kt METAR LIPI 161455Z 03012KT 6000 -TSRA SCT020CB BKN030 17/15 Q1005
16:07
M
17 °C 8 km 3.000 ft 340° 340° 9 kt METAR LIPI 161407Z 34009KT 8000 -TSRA FEW020CB SCT025 BKN030 17/15 Q1007 RMK OVC VIS MIN 6000S WIND THR06 35010KT WIND THR24 01009KT WHT
15:55
I
17 °C 2,5 km 2.000 ft 280° 280° 7 kt METAR LIPI 161355Z 28007KT 2500 TSRA BR SCT015CB BKN020 17/15 Q1008
15:13
I
18 °C 4,5 km 3.000 ft 010° 010° 7 kt METAR LIPI 161313Z 01007KT 4500 -RA BR FEW007 FEW025CB BKN030 18/15 Q1008 RMK OVC VIS MIN 3000S WIND THR06 03007KT WIND THR24 04007KT YLO
14:55
I
18 °C 3 km 3.000 ft 010° 010° 7 kt METAR LIPI 161255Z 01007KT 3000 RA FEW025CB BKN030 18/15 Q1008
13:55
V
17 °C 10 km+ 4.000 ft 330° 330° 6 kt METAR LIPI 161155Z 33006KT 9999 SCT030 BKN040 17/14 Q1008
12:55
V
16 °C 8 km 4.000 ft 340° 340° 7 kt METAR LIPI 161055Z 34007KT 8000 -RA SCT030 BKN040 16/14 Q1009
11:55
V
16 °C 10 km+ 4.000 ft 350° 350° 9 kt METAR LIPI 160955Z 35009KT 9999 -RA FEW030CB BKN040 16/14 Q1009 RMK OVC VIS MIN 9999 WIND THR06 01008KT WIND THR24 02008KT BLU
11:16
V
16 °C 10 km+ 4.000 ft 340° 340° 8 kt METAR LIPI 160916Z 34008KT 9999 -RA FEW030CB BKN040 16/14 Q1009 RMK OVC VIS MIN 9999 WIND THR06 36009KT WIND THR24 01007KT BLU
10:55
V
16 °C 10 km+ 4.000 ft 350° 350° 8 kt METAR LIPI 160855Z 35008KT 9999 -TSRA FEW020CB SCT025 BKN040 16/14 Q1009 RMK OVC VIS MIN 9999 WIND THR06 01008KT WIND THR24 03006KT BLU
10:17
I
16 °C 4,5 km 4.000 ft 340° 340° 7 kt METAR LIPI 160817Z 34007KT 4500 -TSRA BR FEW025CB SCT030 BKN040 16/14 Q1010 RMK OVC VIS MIN 3000SW WIND THR06 36008KT WIND THR24 01007KT YLO
09:55
I
16 °C 4 km 3.000 ft 040° 040° 6 kt METAR LIPI 160755Z 04006KT 4000 -RA BR SCT025 BKN030 16/14 Q1010
08:55
M
16 °C 5 km 3.000 ft 020° 020° 7 kt METAR LIPI 160655Z 02007KT 5000 RA BR FEW025 BKN030 16/15 Q1010
07:55
V
15 °C 8 km 6.000 ft 040° 040° 7 kt METAR LIPI 160555Z 04007KT 8000 -RA SCT035 BKN060 15/13 Q1009 RMK OVC VIS MIN 8000 WIND THR06 06006KT WIND THR24 08010KT BLU
报告变更